ANZ1743 YMML-YMLT
Flight info
| Callsign | ANZ1743 |
|---|---|
| Flight time | 0h 47m |
| Altitude | 29000 |
| Route | SUNTI H169 IRSOM W105 LT |
| Aircraft | A21N/M-SDE2E3FGHIRWXY/LB1 |
Departure
| Time | 2026-05-06 04:34 |
|---|---|
| Airport | Melbourne Airport (YMML) |
Arrival
| Time | 2026-05-06 05:21 |
|---|---|
| Airport | Launceston Airport (YMLT) |
| Time | Latitude | Longitude | Altitude | Speed | Heading |
|---|---|---|---|---|---|
| 2026-05-06 03:59 | -37.67062 | 144.84521 | 364 ft | 0 kts | 183° |
| 2026-05-06 04:21 | -37.67056 | 144.84522 | 364 ft | 3 kts | 183° |
| 2026-05-06 04:22 | -37.67037 | 144.84525 | 364 ft | 3 kts | 214° |
| 2026-05-06 04:22 | -37.67022 | 144.84539 | 363 ft | 3 kts | 216° |
| 2026-05-06 04:22 | -37.67012 | 144.84554 | 367 ft | 0 kts | 268° |
| 2026-05-06 04:26 | -37.67012 | 144.84552 | 363 ft | 1 kts | 268° |
| 2026-05-06 04:26 | -37.67012 | 144.84532 | 366 ft | 3 kts | 267° |
| 2026-05-06 04:26 | -37.67014 | 144.84507 | 365 ft | 4 kts | 264° |
| 2026-05-06 04:27 | -37.67025 | 144.84463 | 368 ft | 6 kts | 243° |
| 2026-05-06 04:27 | -37.67039 | 144.84425 | 370 ft | 5 kts | 248° |
| 2026-05-06 04:27 | -37.67049 | 144.84376 | 372 ft | 5 kts | 259° |
| 2026-05-06 04:27 | -37.67056 | 144.84323 | 374 ft | 7 kts | 261° |
| 2026-05-06 04:28 | -37.67053 | 144.84268 | 373 ft | 5 kts | 293° |
| 2026-05-06 04:28 | -37.67027 | 144.84242 | 376 ft | 6 kts | 338° |
| 2026-05-06 04:28 | -37.66977 | 144.84228 | 375 ft | 9 kts | 351° |
| 2026-05-06 04:28 | -37.66908 | 144.84216 | 376 ft | 11 kts | 352° |
| 2026-05-06 04:29 | -37.66825 | 144.84200 | 378 ft | 13 kts | 352° |
| 2026-05-06 04:29 | -37.66741 | 144.84185 | 378 ft | 12 kts | 352° |
| 2026-05-06 04:29 | -37.66667 | 144.84172 | 379 ft | 8 kts | 352° |
| 2026-05-06 04:29 | -37.66610 | 144.84172 | 378 ft | 9 kts | 10° |
| 2026-05-06 04:30 | -37.66551 | 144.84217 | 374 ft | 12 kts | 52° |
| 2026-05-06 04:30 | -37.66523 | 144.84331 | 366 ft | 15 kts | 82° |
| 2026-05-06 04:30 | -37.66506 | 144.84480 | 359 ft | 20 kts | 82° |
| 2026-05-06 04:30 | -37.66492 | 144.84611 | 350 ft | 11 kts | 82° |
| 2026-05-06 04:31 | -37.66482 | 144.84692 | 337 ft | 8 kts | 82° |
| 2026-05-06 04:31 | -37.66474 | 144.84729 | 334 ft | 7 kts | 65° |
| 2026-05-06 04:31 | -37.66429 | 144.84777 | 332 ft | 8 kts | 16° |
| 2026-05-06 04:31 | -37.66376 | 144.84782 | 332 ft | 6 kts | 1° |
| 2026-05-06 04:32 | -37.66353 | 144.84783 | 332 ft | 3 kts | 1° |
| 2026-05-06 04:32 | -37.66330 | 144.84784 | 332 ft | 4 kts | 1° |
| 2026-05-06 04:32 | -37.66298 | 144.84784 | 332 ft | 5 kts | 1° |
| 2026-05-06 04:32 | -37.66259 | 144.84784 | 334 ft | 5 kts | 352° |
| 2026-05-06 04:33 | -37.66231 | 144.84765 | 333 ft | 4 kts | 314° |
| 2026-05-06 04:33 | -37.66223 | 144.84741 | 333 ft | 2 kts | 275° |
| 2026-05-06 04:33 | -37.66222 | 144.84722 | 336 ft | 6 kts | 272° |
| 2026-05-06 04:33 | -37.66206 | 144.84447 | 356 ft | 61 kts | 274° |
| 2026-05-06 04:34 | -37.66159 | 144.83674 | 402 ft | 117 kts | 274° |
| 2026-05-06 04:34 | -37.66089 | 144.82421 | 602 ft | 154 kts | 277° |
| 2026-05-06 04:34 | -37.66046 | 144.81114 | 1366 ft | 148 kts | 277° |
| 2026-05-06 04:34 | -37.65987 | 144.79844 | 2117 ft | 142 kts | 278° |
| 2026-05-06 04:35 | -37.65894 | 144.78530 | 2657 ft | 161 kts | 278° |
| 2026-05-06 04:35 | -37.65799 | 144.77031 | 3164 ft | 181 kts | 277° |
| 2026-05-06 04:35 | -37.65703 | 144.75368 | 3686 ft | 198 kts | 276° |
| 2026-05-06 04:35 | -37.65597 | 144.73537 | 4141 ft | 222 kts | 276° |
| 2026-05-06 04:36 | -37.65479 | 144.71495 | 4689 ft | 242 kts | 275° |
| 2026-05-06 04:36 | -37.65375 | 144.69324 | 5313 ft | 256 kts | 266° |
| 2026-05-06 04:36 | -37.66088 | 144.67303 | 6375 ft | 258 kts | 227° |
| 2026-05-06 04:36 | -37.67659 | 144.66246 | 7510 ft | 261 kts | 201° |
| 2026-05-06 04:37 | -37.69440 | 144.65562 | 8234 ft | 273 kts | 202° |
| 2026-05-06 04:37 | -37.71261 | 144.64831 | 8944 ft | 283 kts | 203° |
| 2026-05-06 04:37 | -37.73197 | 144.64211 | 9841 ft | 291 kts | 191° |
| 2026-05-06 04:37 | -37.75266 | 144.64350 | 10516 ft | 312 kts | 171° |
| 2026-05-06 04:38 | -37.77367 | 144.65438 | 10847 ft | 341 kts | 154° |
| 2026-05-06 04:38 | -37.79481 | 144.67027 | 11185 ft | 364 kts | 152° |
| 2026-05-06 04:38 | -37.81677 | 144.68753 | 11640 ft | 379 kts | 151° |
| 2026-05-06 04:38 | -37.83947 | 144.70519 | 12319 ft | 387 kts | 152° |
| 2026-05-06 04:39 | -37.86268 | 144.72301 | 13037 ft | 393 kts | 152° |
| 2026-05-06 04:39 | -37.88630 | 144.74098 | 13783 ft | 399 kts | 152° |
| 2026-05-06 04:39 | -37.91033 | 144.75918 | 14450 ft | 405 kts | 153° |
| 2026-05-06 04:39 | -37.93446 | 144.77741 | 15060 ft | 411 kts | 153° |
| 2026-05-06 04:40 | -37.95928 | 144.79615 | 15741 ft | 416 kts | 153° |
| 2026-05-06 04:40 | -37.98430 | 144.81504 | 16422 ft | 420 kts | 153° |
| 2026-05-06 04:40 | -38.00956 | 144.83412 | 17086 ft | 424 kts | 153° |
| 2026-05-06 04:40 | -38.03513 | 144.85344 | 17741 ft | 429 kts | 153° |
| 2026-05-06 04:41 | -38.06087 | 144.87291 | 18388 ft | 433 kts | 153° |
| 2026-05-06 04:41 | -38.08688 | 144.89259 | 18933 ft | 437 kts | 153° |
| 2026-05-06 04:41 | -38.11308 | 144.91243 | 19478 ft | 441 kts | 152° |
| 2026-05-06 04:41 | -38.13920 | 144.93223 | 20018 ft | 444 kts | 152° |
| 2026-05-06 04:42 | -38.16617 | 144.95269 | 20588 ft | 448 kts | 152° |
| 2026-05-06 04:42 | -38.19279 | 144.97291 | 21071 ft | 453 kts | 152° |
| 2026-05-06 04:42 | -38.21992 | 144.99352 | 21587 ft | 457 kts | 152° |
| 2026-05-06 04:42 | -38.24743 | 145.01445 | 22128 ft | 460 kts | 152° |
| 2026-05-06 04:43 | -38.27508 | 145.03549 | 22640 ft | 464 kts | 152° |
| 2026-05-06 04:43 | -38.30295 | 145.05673 | 23146 ft | 468 kts | 152° |
| 2026-05-06 04:43 | -38.33093 | 145.07807 | 23649 ft | 471 kts | 152° |
| 2026-05-06 04:43 | -38.35884 | 145.09939 | 24042 ft | 475 kts | 152° |
| 2026-05-06 04:44 | -38.38737 | 145.12118 | 24423 ft | 478 kts | 152° |
| 2026-05-06 04:44 | -38.41600 | 145.14308 | 24812 ft | 481 kts | 152° |
| 2026-05-06 04:44 | -38.44476 | 145.16510 | 25198 ft | 485 kts | 152° |
| 2026-05-06 04:44 | -38.47381 | 145.18736 | 25556 ft | 488 kts | 152° |
| 2026-05-06 04:45 | -38.50337 | 145.20869 | 25930 ft | 489 kts | 157° |
| 2026-05-06 04:45 | -38.53463 | 145.22584 | 26298 ft | 489 kts | 162° |
| 2026-05-06 04:45 | -38.56657 | 145.24104 | 26646 ft | 491 kts | 164° |
| 2026-05-06 04:45 | -38.59893 | 145.25527 | 26990 ft | 493 kts | 165° |
| 2026-05-06 04:46 | -38.63152 | 145.26915 | 27322 ft | 495 kts | 165° |
| 2026-05-06 04:46 | -38.66434 | 145.28307 | 27659 ft | 498 kts | 165° |
| 2026-05-06 04:46 | -38.69734 | 145.29720 | 27979 ft | 501 kts | 165° |
| 2026-05-06 04:46 | -38.73038 | 145.31153 | 28429 ft | 500 kts | 165° |
| 2026-05-06 04:47 | -38.76287 | 145.32578 | 28864 ft | 500 kts | 165° |
| 2026-05-06 04:47 | -38.79587 | 145.34033 | 29021 ft | 500 kts | 165° |
| 2026-05-06 04:47 | -38.82872 | 145.35489 | 29025 ft | 500 kts | 165° |
| 2026-05-06 04:48 | -38.89453 | 145.38412 | 29037 ft | 500 kts | 165° |
| 2026-05-06 04:48 | -38.96043 | 145.41343 | 29013 ft | 501 kts | 165° |
| 2026-05-06 04:49 | -39.02600 | 145.44262 | 29006 ft | 501 kts | 165° |
| 2026-05-06 04:49 | -39.09205 | 145.47209 | 29007 ft | 501 kts | 165° |
| 2026-05-06 04:50 | -39.15792 | 145.50153 | 29004 ft | 501 kts | 164° |
| 2026-05-06 04:50 | -39.22393 | 145.53109 | 29006 ft | 502 kts | 164° |
| 2026-05-06 04:51 | -39.28997 | 145.56071 | 28996 ft | 503 kts | 164° |
| 2026-05-06 04:51 | -39.35601 | 145.59042 | 28993 ft | 503 kts | 164° |
| 2026-05-06 04:52 | -39.42169 | 145.62002 | 28990 ft | 503 kts | 164° |
| 2026-05-06 04:52 | -39.48786 | 145.64990 | 28990 ft | 503 kts | 164° |
| 2026-05-06 04:53 | -39.55389 | 145.67977 | 29004 ft | 503 kts | 164° |
| 2026-05-06 04:53 | -39.62007 | 145.70977 | 28984 ft | 504 kts | 164° |
| 2026-05-06 04:54 | -39.68630 | 145.73984 | 28982 ft | 504 kts | 164° |
| 2026-05-06 04:54 | -39.75256 | 145.77001 | 28974 ft | 505 kts | 164° |
| 2026-05-06 04:55 | -39.81884 | 145.80024 | 28971 ft | 505 kts | 164° |
| 2026-05-06 04:55 | -39.88515 | 145.83054 | 28969 ft | 506 kts | 164° |
| 2026-05-06 04:56 | -39.95152 | 145.86094 | 28963 ft | 506 kts | 164° |
| 2026-05-06 04:56 | -40.01749 | 145.89124 | 28967 ft | 506 kts | 164° |
| 2026-05-06 04:57 | -40.08400 | 145.92201 | 28964 ft | 508 kts | 164° |
| 2026-05-06 04:57 | -40.15095 | 145.95308 | 28953 ft | 510 kts | 164° |
| 2026-05-06 04:58 | -40.21784 | 145.98421 | 28944 ft | 510 kts | 164° |
| 2026-05-06 04:58 | -40.28471 | 146.01537 | 28941 ft | 510 kts | 163° |
| 2026-05-06 04:59 | -40.35126 | 146.04644 | 28942 ft | 510 kts | 163° |
| 2026-05-06 04:59 | -40.41822 | 146.07777 | 28936 ft | 510 kts | 163° |
| 2026-05-06 05:00 | -40.48524 | 146.10919 | 28928 ft | 511 kts | 163° |
| 2026-05-06 05:00 | -40.55239 | 146.14074 | 28928 ft | 512 kts | 163° |
| 2026-05-06 05:01 | -40.61910 | 146.17216 | 28928 ft | 512 kts | 163° |
| 2026-05-06 05:01 | -40.68625 | 146.20384 | 28917 ft | 513 kts | 163° |
| 2026-05-06 05:01 | -40.71986 | 146.21973 | 28255 ft | 513 kts | 163° |
| 2026-05-06 05:02 | -40.74269 | 146.23052 | 27453 ft | 517 kts | 163° |
| 2026-05-06 05:02 | -40.77673 | 146.24662 | 26397 ft | 520 kts | 163° |
| 2026-05-06 05:02 | -40.81020 | 146.26249 | 25627 ft | 517 kts | 163° |
| 2026-05-06 05:02 | -40.84391 | 146.27851 | 24926 ft | 512 kts | 163° |
| 2026-05-06 05:03 | -40.87726 | 146.29438 | 24243 ft | 507 kts | 163° |
| 2026-05-06 05:03 | -40.91013 | 146.31004 | 23369 ft | 498 kts | 163° |
| 2026-05-06 05:03 | -40.94257 | 146.32551 | 22326 ft | 494 kts | 163° |
| 2026-05-06 05:03 | -40.97474 | 146.34085 | 21656 ft | 487 kts | 163° |
| 2026-05-06 05:04 | -41.00637 | 146.35596 | 21056 ft | 480 kts | 163° |
| 2026-05-06 05:04 | -41.03755 | 146.37087 | 20450 ft | 472 kts | 163° |
| 2026-05-06 05:04 | -41.06838 | 146.38561 | 19853 ft | 466 kts | 164° |
| 2026-05-06 05:04 | -41.09861 | 146.40008 | 19258 ft | 459 kts | 164° |
| 2026-05-06 05:05 | -41.12850 | 146.41442 | 18674 ft | 454 kts | 163° |
| 2026-05-06 05:05 | -41.15674 | 146.43279 | 18115 ft | 453 kts | 148° |
| 2026-05-06 05:05 | -41.18025 | 146.46040 | 17441 ft | 450 kts | 132° |
| 2026-05-06 05:05 | -41.19991 | 146.49232 | 16845 ft | 444 kts | 126° |
| 2026-05-06 05:06 | -41.21723 | 146.52551 | 16283 ft | 437 kts | 122° |
| 2026-05-06 05:06 | -41.23341 | 146.55940 | 15724 ft | 431 kts | 121° |
| 2026-05-06 05:06 | -41.24896 | 146.59313 | 15173 ft | 426 kts | 121° |
| 2026-05-06 05:06 | -41.26437 | 146.62663 | 14635 ft | 422 kts | 121° |
| 2026-05-06 05:07 | -41.27976 | 146.65973 | 14082 ft | 418 kts | 121° |
| 2026-05-06 05:07 | -41.29496 | 146.69198 | 13543 ft | 415 kts | 122° |
| 2026-05-06 05:07 | -41.31036 | 146.72435 | 12969 ft | 411 kts | 122° |
| 2026-05-06 05:07 | -41.32563 | 146.75619 | 12444 ft | 406 kts | 122° |
| 2026-05-06 05:08 | -41.34077 | 146.78772 | 11948 ft | 401 kts | 122° |
| 2026-05-06 05:08 | -41.35569 | 146.81879 | 11432 ft | 396 kts | 123° |
| 2026-05-06 05:08 | -41.37040 | 146.84955 | 10923 ft | 392 kts | 123° |
| 2026-05-06 05:08 | -41.38511 | 146.87987 | 10408 ft | 388 kts | 123° |
| 2026-05-06 05:09 | -41.39914 | 146.90971 | 10115 ft | 371 kts | 122° |
| 2026-05-06 05:09 | -41.41230 | 146.93828 | 10003 ft | 352 kts | 123° |
| 2026-05-06 05:09 | -41.42504 | 146.96503 | 9861 ft | 336 kts | 124° |
| 2026-05-06 05:09 | -41.43774 | 146.99123 | 9745 ft | 335 kts | 124° |
| 2026-05-06 05:10 | -41.45025 | 147.01701 | 9533 ft | 327 kts | 124° |
| 2026-05-06 05:10 | -41.46247 | 147.04231 | 9232 ft | 322 kts | 123° |
| 2026-05-06 05:10 | -41.47450 | 147.06740 | 8907 ft | 319 kts | 123° |
| 2026-05-06 05:10 | -41.48626 | 147.09195 | 8564 ft | 317 kts | 123° |
| 2026-05-06 05:11 | -41.49806 | 147.11669 | 8222 ft | 314 kts | 123° |
| 2026-05-06 05:11 | -41.50970 | 147.14117 | 7888 ft | 311 kts | 123° |
| 2026-05-06 05:11 | -41.52122 | 147.16545 | 7573 ft | 308 kts | 123° |
| 2026-05-06 05:11 | -41.53261 | 147.18942 | 7222 ft | 304 kts | 124° |
| 2026-05-06 05:12 | -41.54611 | 147.21067 | 6920 ft | 297 kts | 143° |
| 2026-05-06 05:12 | -41.56230 | 147.22686 | 6733 ft | 285 kts | 150° |
| 2026-05-06 05:12 | -41.57854 | 147.24123 | 6508 ft | 276 kts | 152° |
| 2026-05-06 05:12 | -41.59495 | 147.25431 | 6288 ft | 274 kts | 155° |
| 2026-05-06 05:13 | -41.61174 | 147.26621 | 5990 ft | 269 kts | 166° |
| 2026-05-06 05:13 | -41.62946 | 147.26948 | 5715 ft | 248 kts | 197° |
| 2026-05-06 05:13 | -41.64473 | 147.26209 | 5468 ft | 231 kts | 219° |
| 2026-05-06 05:13 | -41.65816 | 147.25046 | 5271 ft | 229 kts | 222° |
| 2026-05-06 05:14 | -41.67199 | 147.23944 | 5080 ft | 237 kts | 208° |
| 2026-05-06 05:14 | -41.68856 | 147.23559 | 4905 ft | 247 kts | 188° |
| 2026-05-06 05:14 | -41.70545 | 147.23734 | 4793 ft | 240 kts | 175° |
| 2026-05-06 05:14 | -41.72105 | 147.24549 | 4642 ft | 247 kts | 148° |
| 2026-05-06 05:15 | -41.73223 | 147.26297 | 4472 ft | 250 kts | 115° |
| 2026-05-06 05:15 | -41.73769 | 147.28477 | 4319 ft | 250 kts | 97° |
| 2026-05-06 05:15 | -41.73684 | 147.30703 | 4094 ft | 225 kts | 63° |
| 2026-05-06 05:15 | -41.72863 | 147.32246 | 3888 ft | 188 kts | 25° |
| 2026-05-06 05:16 | -41.71780 | 147.32902 | 3683 ft | 163 kts | 1° |
| 2026-05-06 05:16 | -41.70743 | 147.32782 | 3351 ft | 145 kts | 335° |
| 2026-05-06 05:16 | -41.69803 | 147.32359 | 3058 ft | 140 kts | 334° |
| 2026-05-06 05:16 | -41.68884 | 147.31945 | 2998 ft | 139 kts | 334° |
| 2026-05-06 05:17 | -41.67963 | 147.31560 | 2989 ft | 139 kts | 335° |
| 2026-05-06 05:17 | -41.67034 | 147.31196 | 2983 ft | 140 kts | 336° |
| 2026-05-06 05:17 | -41.66090 | 147.30826 | 3006 ft | 141 kts | 333° |
| 2026-05-06 05:17 | -41.65218 | 147.30272 | 2968 ft | 138 kts | 324° |
| 2026-05-06 05:18 | -41.64408 | 147.29590 | 2767 ft | 137 kts | 321° |
| 2026-05-06 05:18 | -41.63626 | 147.28909 | 2562 ft | 131 kts | 323° |
| 2026-05-06 05:18 | -41.62864 | 147.28261 | 2362 ft | 129 kts | 324° |
| 2026-05-06 05:18 | -41.62114 | 147.27619 | 2174 ft | 127 kts | 324° |
| 2026-05-06 05:19 | -41.61381 | 147.26989 | 2018 ft | 127 kts | 323° |
| 2026-05-06 05:19 | -41.60641 | 147.26354 | 1848 ft | 126 kts | 324° |
| 2026-05-06 05:19 | -41.59905 | 147.25720 | 1671 ft | 126 kts | 328° |
| 2026-05-06 05:19 | -41.59167 | 147.25089 | 1493 ft | 126 kts | 327° |
| 2026-05-06 05:20 | -41.58422 | 147.24448 | 1328 ft | 131 kts | 327° |
| 2026-05-06 05:20 | -41.57650 | 147.23787 | 1149 ft | 132 kts | 327° |
| 2026-05-06 05:20 | -41.56891 | 147.23109 | 985 ft | 129 kts | 327° |
| 2026-05-06 05:20 | -41.56126 | 147.22477 | 823 ft | 130 kts | 327° |
| 2026-05-06 05:21 | -41.55371 | 147.21834 | 615 ft | 127 kts | 327° |
| 2026-05-06 05:21 | -41.54657 | 147.21225 | 563 ft | 111 kts | 327° |
| 2026-05-06 05:21 | -41.54231 | 147.20857 | 569 ft | 37 kts | 327° |
| 2026-05-06 05:21 | -41.54029 | 147.20685 | 569 ft | 33 kts | 326° |
| 2026-05-06 05:22 | -41.53861 | 147.20539 | 569 ft | 25 kts | 329° |
| 2026-05-06 05:22 | -41.53758 | 147.20456 | 571 ft | 11 kts | 328° |
| 2026-05-06 05:22 | -41.53730 | 147.20385 | 571 ft | 9 kts | 262° |
| 2026-05-06 05:22 | -41.53776 | 147.20320 | 571 ft | 11 kts | 201° |
| 2026-05-06 05:23 | -41.53849 | 147.20341 | 569 ft | 11 kts | 147° |
| 2026-05-06 05:23 | -41.53919 | 147.20403 | 568 ft | 13 kts | 146° |
| 2026-05-06 05:23 | -41.54061 | 147.20525 | 567 ft | 13 kts | 148° |
| 2026-05-06 05:24 | -41.54118 | 147.20573 | 568 ft | 8 kts | 148° |
| 2026-05-06 05:24 | -41.54152 | 147.20602 | 569 ft | 0 kts | 148° |
| 2026-05-06 05:24 | -41.54162 | 147.20610 | 566 ft | 3 kts | 147° |
| 2026-05-06 05:24 | -41.54182 | 147.20629 | 567 ft | 4 kts | 145° |
| 2026-05-06 05:25 | -41.54211 | 147.20655 | 565 ft | 6 kts | 147° |
| 2026-05-06 05:25 | -41.54237 | 147.20677 | 565 ft | 2 kts | 147° |
| 2026-05-06 05:25 | -41.54252 | 147.20689 | 563 ft | 3 kts | 153° |
| 2026-05-06 05:25 | -41.54272 | 147.20688 | 565 ft | 3 kts | 207° |
| 2026-05-06 05:26 | -41.54279 | 147.20670 | 563 ft | 2 kts | 262° |
| 2026-05-06 05:26 | -41.54276 | 147.20652 | 565 ft | 2 kts | 288° |
| 2026-05-06 05:26 | -41.54264 | 147.20631 | 567 ft | 3 kts | 313° |
| 2026-05-06 05:26 | -41.54251 | 147.20609 | 562 ft | 3 kts | 307° |
| 2026-05-06 05:27 | -41.54239 | 147.20594 | 564 ft | 1 kts | 328° |
| 2026-05-06 05:27 | -41.54234 | 147.20591 | 568 ft | 0 kts | 331° |